Time;durP1;ratioP1;P1;durP2;ratioP2;P2;SDS_P1;SDS_P2;PMS_P1;PMS_P2;Temp;Humidity;BMP_temperature;BMP_pressure;BME280_temperature;BME280_humidity;BME280_pressure;Samples;Min_cycle;Max_cycle;Signal;HPM_P1;HPM_P2
2023/08/08 00:01:43;;;;;;;3.83;2.17;;;;;;;;;;5007741;28;20196;-48
2023/08/08 00:04:10;;;;;;;3.37;2.00;;;;;;;;;;5028199;28;20185;-50
2023/08/08 00:06:36;;;;;;;3.87;2.10;;;;;;;;;;5022890;28;20200;-50
2023/08/08 00:09:03;;;;;;;2.00;1.90;;;;;;;;;;5024866;28;20190;-49
2023/08/08 00:11:30;;;;;;;2.53;2.33;;;;;;;;;;5027390;28;20317;-49
2023/08/08 00:13:56;;;;;;;2.37;2.20;;;;;;;;;;5027957;28;20197;-53
2023/08/08 00:16:23;;;;;;;2.33;2.13;;;;;;;;;;5027900;28;20233;-53
2023/08/08 00:18:55;;;;;;;2.37;1.73;;;;;;;;;;5028069;28;20213;-54
2023/08/08 00:21:21;;;;;;;4.20;2.13;;;;;;;;;;5026946;28;20178;-52
2023/08/08 00:23:47;;;;;;;2.30;2.10;;;;;;;;;;5027157;28;20545;-52
2023/08/08 00:26:14;;;;;;;2.30;2.10;;;;;;;;;;5026765;28;20684;-53
2023/08/08 00:28:40;;;;;;;4.27;2.37;;;;;;;;;;5027306;28;20637;-52
2023/08/08 00:31:06;;;;;;;2.20;2.00;;;;;;;;;;5027536;28;20224;-53
2023/08/08 00:33:32;;;;;;;2.83;2.37;;;;;;;;;;5026175;28;20213;-52
2023/08/08 00:35:58;;;;;;;3.47;2.17;;;;;;;;;;5026138;28;20689;-53
2023/08/08 00:38:24;;;;;;;3.73;2.33;;;;;;;;;;5026491;28;20182;-50
2023/08/08 00:40:50;;;;;;;3.63;2.17;;;;;;;;;;5023167;28;20680;-51
2023/08/08 00:43:16;;;;;;;21.20;2.43;;;;;;;;;;5025425;28;20517;-52
2023/08/08 00:45:43;;;;;;;4.33;2.27;;;;;;;;;;5024991;28;20189;-54
2023/08/08 00:48:10;;;;;;;2.17;1.97;;;;;;;;;;5028067;28;20605;-53
2023/08/08 00:50:37;;;;;;;1.87;1.77;;;;;;;;;;5024958;28;20614;-51
2023/08/08 00:53:04;;;;;;;2.23;2.13;;;;;;;;;;5025132;28;20181;-52
2023/08/08 00:55:31;;;;;;;2.67;2.47;;;;;;;;;;5025199;28;20213;-52
2023/08/08 00:57:58;;;;;;;5.10;2.90;;;;;;;;;;5026613;28;20206;-51
2023/08/08 01:00:24;;;;;;;2.43;2.00;;;;;;;;;;5028494;28;20182;-52
2023/08/08 01:02:50;;;;;;;2.10;1.80;;;;;;;;;;5026985;28;20305;-52
2023/08/08 01:05:16;;;;;;;2.20;2.00;;;;;;;;;;5026426;28;20272;-53
2023/08/08 01:07:57;;;;;;;6.20;2.30;;;;;;;;;;5026196;28;20193;-54
2023/08/08 01:10:38;;;;;;;3.20;2.00;;;;;;;;;;5025906;28;20213;-53
2023/08/08 01:13:18;;;;;;;2.33;2.10;;;;;;;;;;5023110;28;20189;-52
2023/08/08 01:15:46;;;;;;;2.70;2.13;;;;;;;;;;5022419;28;20683;-51
2023/08/08 01:18:12;;;;;;;2.50;2.27;;;;;;;;;;5025389;28;20193;-53
2023/08/08 01:20:38;;;;;;;2.97;2.30;;;;;;;;;;5024410;28;20273;-50
2023/08/08 01:23:28;;;;;;;2.40;2.20;;;;;;;;;;5025928;28;20249;-54
2023/08/08 01:25:54;;;;;;;5.97;2.87;;;;;;;;;;5009054;28;20274;-53
2023/08/08 01:28:23;;;;;;;2.47;2.27;;;;;;;;;;5027644;28;20777;-51
2023/08/08 01:30:50;;;;;;;2.07;1.97;;;;;;;;;;5025266;28;20692;-51
2023/08/08 01:33:16;;;;;;;3.10;2.50;;;;;;;;;;5027973;28;20710;-52
2023/08/08 01:35:45;;;;;;;2.83;2.53;;;;;;;;;;5028366;28;20226;-51
2023/08/08 01:38:11;;;;;;;2.43;2.03;;;;;;;;;;5029227;28;20224;-52
2023/08/08 01:40:41;;;;;;;3.03;2.37;;;;;;;;;;5022924;28;20721;-50
2023/08/08 01:43:07;;;;;;;2.70;2.50;;;;;;;;;;5026984;28;20685;-53
2023/08/08 01:45:33;;;;;;;2.50;2.30;;;;;;;;;;5025340;28;20296;-52
2023/08/08 01:47:59;;;;;;;3.20;2.23;;;;;;;;;;5029504;28;20213;-53
2023/08/08 01:50:25;;;;;;;2.90;2.60;;;;;;;;;;5029073;28;20198;-54
2023/08/08 01:52:51;;;;;;;3.60;2.50;;;;;;;;;;5027921;28;20186;-50
2023/08/08 01:55:17;;;;;;;2.70;2.50;;;;;;;;;;5028849;28;20542;-51
2023/08/08 01:57:43;;;;;;;3.30;2.60;;;;;;;;;;5029826;28;20729;-53
2023/08/08 02:00:11;;;;;;;2.83;2.50;;;;;;;;;;5030047;28;20231;-51
2023/08/08 02:02:37;;;;;;;2.67;2.47;;;;;;;;;;5029712;28;20188;-54
2023/08/08 02:05:04;;;;;;;3.07;2.70;;;;;;;;;;5029130;28;20193;-52
2023/08/08 02:07:30;;;;;;;2.80;2.23;;;;;;;;;;5028114;28;20190;-53
2023/08/08 02:09:57;;;;;;;3.90;2.60;;;;;;;;;;5011081;28;20217;-53
2023/08/08 02:12:23;;;;;;;2.60;2.40;;;;;;;;;;5029952;28;20276;-53
2023/08/08 02:14:49;;;;;;;4.17;2.73;;;;;;;;;;5028535;28;20178;-52
2023/08/08 02:17:15;;;;;;;3.27;2.67;;;;;;;;;;5029927;28;20564;-52
2023/08/08 02:19:41;;;;;;;4.20;2.87;;;;;;;;;;5028757;28;20597;-49
2023/08/08 02:22:07;;;;;;;3.73;2.70;;;;;;;;;;5028627;28;20589;-51
2023/08/08 02:24:33;;;;;;;3.37;2.50;;;;;;;;;;5028197;28;20199;-52
2023/08/08 02:27:00;;;;;;;3.90;2.60;;;;;;;;;;5029615;28;20192;-52
2023/08/08 02:29:27;;;;;;;4.13;2.53;;;;;;;;;;5030302;28;20525;-51
2023/08/08 02:31:53;;;;;;;4.20;2.43;;;;;;;;;;5028417;28;20245;-51
2023/08/08 02:34:19;;;;;;;4.33;2.93;;;;;;;;;;5024431;28;20197;-48
2023/08/08 02:36:48;;;;;;;3.30;2.53;;;;;;;;;;5027922;28;20708;-50
2023/08/08 02:39:15;;;;;;;2.60;2.40;;;;;;;;;;5027763;28;20193;-48
2023/08/08 02:41:42;;;;;;;3.60;2.50;;;;;;;;;;5027290;28;20205;-49
2023/08/08 02:44:08;;;;;;;3.20;2.90;;;;;;;;;;5028880;28;20238;-49
2023/08/08 02:46:34;;;;;;;5.07;2.40;;;;;;;;;;5027305;28;20193;-49
2023/08/08 02:49:01;;;;;;;4.33;2.67;;;;;;;;;;5029499;28;20695;-49
2023/08/08 02:51:27;;;;;;;4.33;3.03;;;;;;;;;;5025441;28;20192;-49
2023/08/08 02:53:53;;;;;;;4.07;2.70;;;;;;;;;;5026978;28;20190;-48
2023/08/08 02:56:20;;;;;;;3.30;3.00;;;;;;;;;;5026990;28;21053;-48
2023/08/08 02:58:46;;;;;;;4.00;3.20;;;;;;;;;;5028447;28;20591;-48
2023/08/08 03:01:14;;;;;;;3.10;2.80;;;;;;;;;;5025447;28;20181;-48
2023/08/08 03:03:41;;;;;;;3.33;2.60;;;;;;;;;;5027910;28;20587;-47
2023/08/08 03:06:07;;;;;;;3.70;2.77;;;;;;;;;;5025774;28;20189;-48
2023/08/08 03:08:33;;;;;;;3.60;3.17;;;;;;;;;;5026292;28;20201;-49
2023/08/08 03:10:59;;;;;;;5.50;2.83;;;;;;;;;;5025562;28;20189;-49
2023/08/08 03:13:25;;;;;;;4.37;2.90;;;;;;;;;;5029625;28;20625;-48
2023/08/08 03:15:51;;;;;;;5.70;2.50;;;;;;;;;;5026399;28;20803;-49
2023/08/08 03:18:17;;;;;;;2.97;2.67;;;;;;;;;;5027684;28;20212;-49
2023/08/08 03:20:43;;;;;;;4.30;2.97;;;;;;;;;;5009468;28;20193;-50
2023/08/08 03:23:09;;;;;;;5.13;3.33;;;;;;;;;;5024646;28;20661;-49
2023/08/08 03:25:35;;;;;;;3.27;2.60;;;;;;;;;;5026154;28;20190;-49
2023/08/08 03:28:01;;;;;;;3.40;2.60;;;;;;;;;;5026307;28;20196;-49
2023/08/08 03:30:27;;;;;;;3.90;2.60;;;;;;;;;;5027649;28;20575;-49
2023/08/08 03:32:53;;;;;;;4.53;3.07;;;;;;;;;;5028352;28;20205;-50
2023/08/08 03:35:19;;;;;;;5.73;3.87;;;;;;;;;;5025236;28;20197;-49
2023/08/08 03:37:45;;;;;;;5.07;3.07;;;;;;;;;;5024800;28;20193;-51
2023/08/08 03:40:13;;;;;;;5.20;3.53;;;;;;;;;;5024236;28;20192;-49
2023/08/08 03:42:39;;;;;;;3.87;3.33;;;;;;;;;;5026483;28;20182;-49
2023/08/08 03:45:06;;;;;;;4.83;3.10;;;;;;;;;;5025954;28;21749;-52
2023/08/08 03:47:32;;;;;;;4.20;2.93;;;;;;;;;;5028273;28;20665;-52
2023/08/08 03:49:58;;;;;;;5.30;3.27;;;;;;;;;;5008684;28;20197;-52
2023/08/08 03:52:24;;;;;;;3.10;2.80;;;;;;;;;;5023406;28;20653;-52
2023/08/08 03:54:50;;;;;;;3.10;2.80;;;;;;;;;;5027666;28;20653;-51
2023/08/08 03:57:16;;;;;;;5.13;2.93;;;;;;;;;;5029376;28;20568;-52
2023/08/08 03:59:42;;;;;;;4.00;2.70;;;;;;;;;;5027438;28;20192;-51
2023/08/08 04:02:08;;;;;;;4.07;3.00;;;;;;;;;;5027957;28;20201;-51
2023/08/08 04:04:34;;;;;;;3.80;3.20;;;;;;;;;;5029168;28;20562;-51
2023/08/08 04:07:00;;;;;;;4.20;3.03;;;;;;;;;;5026312;28;20355;-52
2023/08/08 04:09:26;;;;;;;2.97;2.73;;;;;;;;;;5024180;28;20182;-51
2023/08/08 04:11:53;;;;;;;3.73;3.07;;;;;;;;;;5025035;28;20195;-52
2023/08/08 04:14:19;;;;;;;3.47;2.43;;;;;;;;;;5026178;28;20194;-52
2023/08/08 04:16:45;;;;;;;5.60;3.43;;;;;;;;;;5023459;28;20220;-51
2023/08/08 04:19:11;;;;;;;3.57;3.00;;;;;;;;;;5026379;28;20199;-51
2023/08/08 04:21:37;;;;;;;5.13;3.03;;;;;;;;;;5025841;28;20184;-51
2023/08/08 04:24:03;;;;;;;5.27;3.73;;;;;;;;;;5023564;28;20178;-51
2023/08/08 04:26:29;;;;;;;3.30;2.90;;;;;;;;;;5027409;28;20771;-52
2023/08/08 04:28:55;;;;;;;5.30;2.80;;;;;;;;;;5027130;28;20200;-52
2023/08/08 04:31:24;;;;;;;4.03;3.47;;;;;;;;;;5027266;28;20225;-51
2023/08/08 04:33:50;;;;;;;5.57;2.93;;;;;;;;;;5027919;28;20199;-51
2023/08/08 04:36:16;;;;;;;3.83;2.97;;;;;;;;;;5027659;28;20585;-51
2023/08/08 04:38:43;;;;;;;4.03;3.10;;;;;;;;;;5007829;28;20209;-51
2023/08/08 04:41:09;;;;;;;3.20;2.40;;;;;;;;;;5023463;28;20186;-51
2023/08/08 04:43:35;;;;;;;5.07;2.60;;;;;;;;;;5027059;28;20240;-51
2023/08/08 04:46:02;;;;;;;5.63;2.70;;;;;;;;;;5023054;28;20186;-51
2023/08/08 04:48:28;;;;;;;4.43;2.73;;;;;;;;;;5023505;28;20718;-51
2023/08/08 04:50:54;;;;;;;3.83;2.80;;;;;;;;;;5029366;28;20185;-51
2023/08/08 04:53:20;;;;;;;3.10;2.80;;;;;;;;;;5027137;28;20369;-51
2023/08/08 04:55:46;;;;;;;3.30;2.43;;;;;;;;;;5023591;28;20223;-48
2023/08/08 04:58:12;;;;;;;4.43;2.80;;;;;;;;;;5020843;28;20254;-48
2023/08/08 05:00:38;;;;;;;3.07;2.77;;;;;;;;;;5023440;28;20193;-49
2023/08/08 05:03:04;;;;;;;6.63;2.87;;;;;;;;;;5025208;28;20641;-49
2023/08/08 05:05:30;;;;;;;6.17;2.90;;;;;;;;;;5025354;28;20190;-52
2023/08/08 05:07:57;;;;;;;5.13;3.70;;;;;;;;;;5021642;28;20187;-52
2023/08/08 05:10:23;;;;;;;4.27;3.00;;;;;;;;;;5026412;28;20680;-53
2023/08/08 05:12:49;;;;;;;5.13;2.93;;;;;;;;;;5026988;28;20247;-50
2023/08/08 05:15:15;;;;;;;4.00;3.20;;;;;;;;;;5028115;28;20200;-50
2023/08/08 05:17:41;;;;;;;6.65;3.90;;;;;;;;;;5022589;28;20828;-49
2023/08/08 05:20:08;;;;;;;8.30;3.40;;;;;;;;;;5025499;28;20620;-49
2023/08/08 05:22:34;;;;;;;3.47;2.80;;;;;;;;;;4999006;28;20895;-49
2023/08/08 05:25:00;;;;;;;4.70;3.13;;;;;;;;;;5023546;28;20214;-49
2023/08/08 05:27:26;;;;;;;4.57;3.30;;;;;;;;;;5006295;28;20325;-50
2023/08/08 05:29:52;;;;;;;5.80;3.70;;;;;;;;;;5007034;28;20316;-50
2023/08/08 05:32:19;;;;;;;4.63;3.73;;;;;;;;;;5027623;28;20875;-50
2023/08/08 05:34:45;;;;;;;4.50;2.97;;;;;;;;;;5024921;28;20466;-50
2023/08/08 05:37:11;;;;;;;5.20;3.30;;;;;;;;;;5023279;28;20764;-49
2023/08/08 05:39:37;;;;;;;9.13;4.07;;;;;;;;;;5023109;28;20186;-49
2023/08/08 05:42:04;;;;;;;7.03;3.60;;;;;;;;;;5024456;28;20178;-49
2023/08/08 05:44:30;;;;;;;4.67;3.50;;;;;;;;;;5004829;28;20191;-49
2023/08/08 05:46:56;;;;;;;6.43;3.33;;;;;;;;;;5005066;28;20189;-50
2023/08/08 05:49:22;;;;;;;8.57;3.33;;;;;;;;;;5022268;28;20599;-50
2023/08/08 05:51:48;;;;;;;7.03;4.10;;;;;;;;;;5026803;28;20221;-51
2023/08/08 05:54:15;;;;;;;6.50;3.90;;;;;;;;;;5024898;28;20190;-50
2023/08/08 05:56:41;;;;;;;5.63;4.13;;;;;;;;;;5025234;28;20269;-50
2023/08/08 05:59:07;;;;;;;7.30;3.77;;;;;;;;;;5025110;28;20719;-49
2023/08/08 06:01:34;;;;;;;8.13;3.77;;;;;;;;;;5026048;28;20258;-49
2023/08/08 06:04:00;;;;;;;5.63;3.73;;;;;;;;;;5026045;28;20230;-49
2023/08/08 06:06:27;;;;;;;9.13;4.40;;;;;;;;;;5026193;28;20647;-49
2023/08/08 06:08:53;;;;;;;6.63;4.90;;;;;;;;;;5024521;28;20324;-49
2023/08/08 06:11:21;;;;;;;10.93;5.90;;;;;;;;;;5021520;28;20300;-49
2023/08/08 06:13:48;;;;;;;11.53;6.27;;;;;;;;;;5020540;28;20181;-50
2023/08/08 06:16:14;;;;;;;11.37;6.57;;;;;;;;;;5024937;28;20249;-51
2023/08/08 06:18:41;;;;;;;12.57;7.50;;;;;;;;;;5026608;28;20196;-51
2023/08/08 06:21:07;;;;;;;8.93;6.67;;;;;;;;;;5021794;28;20277;-51
2023/08/08 06:23:34;;;;;;;8.93;6.10;;;;;;;;;;5027440;28;20600;-49
2023/08/08 06:26:00;;;;;;;7.73;6.30;;;;;;;;;;5008770;28;20195;-52
2023/08/08 06:28:26;;;;;;;8.83;6.60;;;;;;;;;;5029573;28;20232;-52
2023/08/08 06:30:52;;;;;;;9.00;5.70;;;;;;;;;;5028777;28;20260;-53
2023/08/08 06:33:18;;;;;;;12.37;7.63;;;;;;;;;;5027969;28;20197;-53
2023/08/08 06:35:45;;;;;;;16.57;9.03;;;;;;;;;;5025892;28;20695;-52
2023/08/08 06:38:11;;;;;;;11.27;7.97;;;;;;;;;;5026111;28;20202;-51
2023/08/08 06:40:37;;;;;;;9.40;8.33;;;;;;;;;;5024868;28;20560;-52
2023/08/08 06:43:04;;;;;;;14.13;6.80;;;;;;;;;;5023659;28;20188;-53
2023/08/08 06:45:30;;;;;;;9.10;6.90;;;;;;;;;;5019527;28;20194;-53
2023/08/08 06:47:57;;;;;;;14.70;9.20;;;;;;;;;;5031029;28;20206;-53
2023/08/08 06:50:24;;;;;;;16.13;9.17;;;;;;;;;;5027040;28;20227;-51
2023/08/08 06:52:50;;;;;;;12.30;7.93;;;;;;;;;;5027095;28;20197;-53
2023/08/08 06:55:17;;;;;;;12.37;7.77;;;;;;;;;;5022156;28;20650;-54
2023/08/08 06:57:44;;;;;;;9.13;7.13;;;;;;;;;;5023380;28;20188;-52
2023/08/08 07:00:12;;;;;;;13.33;6.73;;;;;;;;;;5029528;28;20193;-53
2023/08/08 07:02:39;;;;;;;9.27;6.53;;;;;;;;;;5025190;28;21879;-53
2023/08/08 07:05:06;;;;;;;9.00;6.73;;;;;;;;;;5034889;28;20178;-54
2023/08/08 07:07:33;;;;;;;10.33;7.23;;;;;;;;;;5026330;28;20277;-52
2023/08/08 07:09:59;;;;;;;9.37;6.90;;;;;;;;;;5027617;28;20193;-52
2023/08/08 07:12:26;;;;;;;11.23;6.23;;;;;;;;;;5025129;28;20547;-54
2023/08/08 07:14:52;;;;;;;6.87;5.63;;;;;;;;;;5021717;28;20647;-53
2023/08/08 07:17:18;;;;;;;12.13;6.60;;;;;;;;;;5032639;28;20213;-51
2023/08/08 07:19:44;;;;;;;7.87;6.10;;;;;;;;;;5028730;28;20188;-52
2023/08/08 07:22:11;;;;;;;10.23;5.53;;;;;;;;;;5029673;28;20189;-52
2023/08/08 07:24:38;;;;;;;6.97;5.60;;;;;;;;;;5026282;28;20596;-51
2023/08/08 07:27:05;;;;;;;7.07;5.00;;;;;;;;;;5028077;28;20188;-56
2023/08/08 07:29:32;;;;;;;11.63;5.40;;;;;;;;;;5026886;28;20195;-55
2023/08/08 07:31:58;;;;;;;7.77;5.23;;;;;;;;;;5027098;28;20213;-54
2023/08/08 07:34:25;;;;;;;9.93;5.10;;;;;;;;;;5025970;28;20602;-51
2023/08/08 07:36:51;;;;;;;9.47;5.40;;;;;;;;;;5022915;28;20722;-51
2023/08/08 07:39:17;;;;;;;8.37;5.10;;;;;;;;;;5025544;28;20285;-52
2023/08/08 07:41:43;;;;;;;10.60;5.00;;;;;;;;;;5024709;28;20273;-53
2023/08/08 07:44:10;;;;;;;8.40;4.63;;;;;;;;;;5024291;28;20201;-51
2023/08/08 07:46:36;;;;;;;9.73;5.47;;;;;;;;;;5028173;28;20488;-48
2023/08/08 07:49:04;;;;;;;7.73;4.73;;;;;;;;;;5026548;28;20646;-49
2023/08/08 07:51:30;;;;;;;7.83;5.00;;;;;;;;;;5027617;28;20200;-48
2023/08/08 07:53:57;;;;;;;7.00;5.03;;;;;;;;;;5025779;28;20196;-49
2023/08/08 07:56:23;;;;;;;8.80;4.63;;;;;;;;;;5023351;28;20571;-49
2023/08/08 07:58:49;;;;;;;8.03;4.57;;;;;;;;;;5025643;28;20311;-49
2023/08/08 08:01:16;;;;;;;6.57;4.43;;;;;;;;;;5027493;28;20183;-49
2023/08/08 08:03:42;;;;;;;5.77;4.00;;;;;;;;;;5025753;28;20312;-49
2023/08/08 08:06:08;;;;;;;8.13;4.43;;;;;;;;;;5026094;28;20598;-50
2023/08/08 08:08:35;;;;;;;8.03;4.07;;;;;;;;;;5025785;28;20196;-50
2023/08/08 08:11:02;;;;;;;7.33;4.40;;;;;;;;;;4996061;28;20588;-49
2023/08/08 08:13:28;;;;;;;6.27;4.57;;;;;;;;;;5022963;28;20291;-50
2023/08/08 08:15:54;;;;;;;5.10;3.87;;;;;;;;;;5028449;28;20203;-49
2023/08/08 08:18:21;;;;;;;7.00;4.10;;;;;;;;;;5027751;28;20194;-49
2023/08/08 08:20:47;;;;;;;7.83;4.53;;;;;;;;;;5023265;28;20263;-49
2023/08/08 08:23:13;;;;;;;5.57;4.17;;;;;;;;;;5023559;28;20189;-49
2023/08/08 08:25:40;;;;;;;9.80;5.63;;;;;;;;;;5026028;28;20198;-49
2023/08/08 08:28:06;;;;;;;6.53;4.03;;;;;;;;;;5009284;28;20199;-49
2023/08/08 08:30:32;;;;;;;5.80;4.40;;;;;;;;;;5026927;28;20222;-48
2023/08/08 08:32:58;;;;;;;5.23;3.37;;;;;;;;;;5026566;28;20200;-49
2023/08/08 08:35:25;;;;;;;4.27;3.60;;;;;;;;;;5026811;28;20194;-49
2023/08/08 08:37:51;;;;;;;5.53;3.90;;;;;;;;;;5023772;28;20218;-49
2023/08/08 08:40:17;;;;;;;6.37;4.07;;;;;;;;;;5028322;28;20219;-49
2023/08/08 08:42:45;;;;;;;4.97;4.47;;;;;;;;;;5023836;28;20314;-50
2023/08/08 08:45:11;;;;;;;4.73;3.20;;;;;;;;;;5023092;28;20282;-52
2023/08/08 08:47:43;;;;;;;7.00;3.97;;;;;;;;;;5028081;28;20714;-52
2023/08/08 08:50:10;;;;;;;3.97;3.47;;;;;;;;;;5001038;28;20180;-52
2023/08/08 08:52:36;;;;;;;3.80;3.40;;;;;;;;;;5021917;28;20714;-52
2023/08/08 08:55:02;;;;;;;3.77;3.40;;;;;;;;;;5024343;28;20236;-52
2023/08/08 08:57:29;;;;;;;5.20;3.50;;;;;;;;;;5026615;28;20213;-51
2023/08/08 08:59:55;;;;;;;5.77;4.10;;;;;;;;;;5026802;28;20209;-52
2023/08/08 09:02:22;;;;;;;4.37;3.40;;;;;;;;;;5007748;28;20185;-53
2023/08/08 09:04:49;;;;;;;5.10;3.63;;;;;;;;;;5026499;28;20477;-53
2023/08/08 09:07:17;;;;;;;8.80;4.00;;;;;;;;;;5026725;28;20728;-53
2023/08/08 09:09:43;;;;;;;4.67;3.70;;;;;;;;;;5024596;28;20200;-53
2023/08/08 09:12:10;;;;;;;7.43;3.70;;;;;;;;;;5025021;28;20591;-53
2023/08/08 09:14:40;;;;;;;7.40;3.17;;;;;;;;;;5027079;28;20189;-53
2023/08/08 09:17:11;;;;;;;4.63;3.40;;;;;;;;;;5031151;28;20251;-53
2023/08/08 09:19:37;;;;;;;4.47;3.57;;;;;;;;;;5029693;28;20186;-53
2023/08/08 09:22:03;;;;;;;6.10;4.60;;;;;;;;;;5024391;28;20384;-53
2023/08/08 09:24:29;;;;;;;4.83;3.43;;;;;;;;;;5026906;28;20194;-53
2023/08/08 09:26:55;;;;;;;5.43;3.40;;;;;;;;;;5027141;28;20251;-52
2023/08/08 09:29:21;;;;;;;4.20;3.40;;;;;;;;;;5028043;28;20209;-53
2023/08/08 09:31:48;;;;;;;5.57;3.50;;;;;;;;;;5028648;28;20205;-55
2023/08/08 09:34:14;;;;;;;5.10;3.23;;;;;;;;;;5011588;28;20384;-53
2023/08/08 09:36:41;;;;;;;3.67;3.10;;;;;;;;;;5014761;28;20217;-52
2023/08/08 09:39:07;;;;;;;6.67;3.80;;;;;;;;;;5026833;28;20193;-52
2023/08/08 09:41:33;;;;;;;5.07;2.97;;;;;;;;;;5030912;28;20217;-52
2023/08/08 09:44:00;;;;;;;5.37;3.50;;;;;;;;;;5027191;28;20197;-53
2023/08/08 09:46:26;;;;;;;5.77;2.97;;;;;;;;;;5026047;28;20633;-52
2023/08/08 09:48:53;;;;;;;4.30;2.90;;;;;;;;;;5026320;28;20199;-52
2023/08/08 09:51:19;;;;;;;5.60;3.33;;;;;;;;;;5026475;28;20688;-53
2023/08/08 09:53:47;;;;;;;4.67;3.00;;;;;;;;;;5023429;28;20328;-52
2023/08/08 09:56:14;;;;;;;3.63;2.77;;;;;;;;;;5027094;28;20206;-52
2023/08/08 09:58:40;;;;;;;4.30;2.67;;;;;;;;;;5031110;28;20231;-53
2023/08/08 10:01:07;;;;;;;4.77;2.87;;;;;;;;;;5024478;28;20201;-53
2023/08/08 10:03:33;;;;;;;11.80;2.97;;;;;;;;;;5023595;28;20662;-52
2023/08/08 10:05:59;;;;;;;5.13;3.20;;;;;;;;;;5026718;28;20841;-52
2023/08/08 10:08:26;;;;;;;3.33;2.80;;;;;;;;;;5027954;28;20637;-53
2023/08/08 10:10:52;;;;;;;5.27;3.10;;;;;;;;;;5030678;28;20664;-52
2023/08/08 10:13:25;;;;;;;3.97;2.80;;;;;;;;;;5027604;28;20646;-53
2023/08/08 10:15:52;;;;;;;4.37;2.80;;;;;;;;;;5026561;28;20213;-53
2023/08/08 10:18:19;;;;;;;4.30;3.17;;;;;;;;;;5027185;28;20197;-53
2023/08/08 10:20:49;;;;;;;5.17;3.30;;;;;;;;;;5026867;28;20206;-52
2023/08/08 10:23:15;;;;;;;4.13;2.97;;;;;;;;;;5023035;28;20186;-53
2023/08/08 10:25:48;;;;;;;4.60;2.80;;;;;;;;;;5028277;28;20593;-53
2023/08/08 10:28:15;;;;;;;4.63;2.77;;;;;;;;;;5028068;28;20657;-53
2023/08/08 10:30:44;;;;;;;4.13;3.00;;;;;;;;;;5031927;28;20711;-53
2023/08/08 10:33:21;;;;;;;2.90;2.70;;;;;;;;;;5026694;28;20240;-53
2023/08/08 10:36:02;;;;;;;4.40;2.57;;;;;;;;;;5024939;28;20209;-53
2023/08/08 10:38:39;;;;;;;3.20;2.60;;;;;;;;;;5029347;28;20185;-52
2023/08/08 10:41:09;;;;;;;3.87;2.93;;;;;;;;;;5023227;28;20190;-52
2023/08/08 10:43:35;;;;;;;5.30;2.50;;;;;;;;;;5022028;28;20202;-53
2023/08/08 10:46:02;;;;;;;3.93;3.10;;;;;;;;;;5025364;28;20285;-52
2023/08/08 10:48:29;;;;;;;4.27;3.07;;;;;;;;;;5028525;28;20729;-52
2023/08/08 10:50:58;;;;;;;4.53;2.80;;;;;;;;;;5027678;28;20620;-55
2023/08/08 10:53:28;;;;;;;5.00;3.03;;;;;;;;;;5027377;28;20182;-52
2023/08/08 10:56:03;;;;;;;6.40;3.30;;;;;;;;;;5024797;28;20572;-53
2023/08/08 10:58:38;;;;;;;5.13;3.30;;;;;;;;;;5029147;28;20185;-52
2023/08/08 11:01:09;;;;;;;7.87;3.20;;;;;;;;;;5024509;28;20244;-50
2023/08/08 11:03:39;;;;;;;7.40;3.40;;;;;;;;;;5011758;28;20221;-51
2023/08/08 11:06:08;;;;;;;7.70;3.70;;;;;;;;;;5027181;28;20275;-53
2023/08/08 11:08:36;;;;;;;3.90;2.80;;;;;;;;;;5026329;28;20205;-53
2023/08/08 11:11:03;;;;;;;3.90;3.00;;;;;;;;;;5010690;28;20186;-53
2023/08/08 11:13:29;;;;;;;5.83;3.60;;;;;;;;;;5029323;28;20186;-51
2023/08/08 11:15:55;;;;;;;6.30;2.97;;;;;;;;;;5023518;28;20210;-53
2023/08/08 11:18:22;;;;;;;5.00;3.20;;;;;;;;;;5024069;28;20192;-52
2023/08/08 11:20:49;;;;;;;2.87;2.67;;;;;;;;;;5026266;28;20192;-52
2023/08/08 11:23:15;;;;;;;3.83;2.90;;;;;;;;;;5027317;28;20185;-52
2023/08/08 11:25:42;;;;;;;4.73;2.90;;;;;;;;;;5027245;28;20191;-51
2023/08/08 11:28:09;;;;;;;3.60;2.90;;;;;;;;;;5019424;28;20189;-51
2023/08/08 11:30:37;;;;;;;5.50;3.50;;;;;;;;;;5031756;28;20217;-51
2023/08/08 11:33:03;;;;;;;5.23;2.83;;;;;;;;;;5008848;28;20248;-51
2023/08/08 11:35:30;;;;;;;4.73;2.63;;;;;;;;;;5026103;28;20273;-52
2023/08/08 11:37:57;;;;;;;9.20;3.10;;;;;;;;;;5022107;28;20217;-52
2023/08/08 11:40:23;;;;;;;3.30;2.47;;;;;;;;;;5024265;28;20233;-52
2023/08/08 11:42:51;;;;;;;3.90;2.90;;;;;;;;;;5028468;28;20592;-52
2023/08/08 11:45:17;;;;;;;6.10;3.30;;;;;;;;;;5028289;28;20194;-52
2023/08/08 11:47:43;;;;;;;4.60;2.57;;;;;;;;;;5029015;28;20190;-52
2023/08/08 11:50:12;;;;;;;5.30;3.10;;;;;;;;;;5024878;28;20487;-53
2023/08/08 11:52:42;;;;;;;5.73;3.30;;;;;;;;;;5026038;28;20283;-52
2023/08/08 11:55:08;;;;;;;4.00;3.17;;;;;;;;;;5022507;28;20197;-51
2023/08/08 11:57:38;;;;;;;6.80;3.77;;;;;;;;;;5021137;28;20308;-53
2023/08/08 12:00:07;;;;;;;6.87;2.93;;;;;;;;;;5022180;28;20196;-52
2023/08/08 12:02:33;;;;;;;4.20;2.63;;;;;;;;;;5023482;28;20202;-52
2023/08/08 12:05:06;;;;;;;8.57;3.20;;;;;;;;;;5022470;28;20197;-52
2023/08/08 12:07:34;;;;;;;8.53;2.90;;;;;;;;;;5024059;28;20768;-53
2023/08/08 12:10:01;;;;;;;4.80;2.73;;;;;;;;;;5021954;28;20646;-52
2023/08/08 12:12:27;;;;;;;6.40;2.67;;;;;;;;;;5023610;28;20721;-52
2023/08/08 12:14:57;;;;;;;3.00;2.60;;;;;;;;;;5023703;28;20190;-48
2023/08/08 12:17:23;;;;;;;3.20;2.50;;;;;;;;;;5024984;28;20654;-50
2023/08/08 12:19:49;;;;;;;4.43;2.37;;;;;;;;;;5021894;28;20220;-49
2023/08/08 12:22:16;;;;;;;3.80;2.97;;;;;;;;;;5024217;28;20198;-49
2023/08/08 12:24:42;;;;;;;3.20;2.73;;;;;;;;;;5025392;28;20471;-50
2023/08/08 12:27:08;;;;;;;5.97;3.20;;;;;;;;;;5019793;28;20289;-50
2023/08/08 12:29:34;;;;;;;4.93;3.10;;;;;;;;;;5005776;28;20560;-50
2023/08/08 12:32:02;;;;;;;4.33;2.90;;;;;;;;;;5024033;28;20360;-50
2023/08/08 12:34:28;;;;;;;4.73;2.83;;;;;;;;;;5020478;28;20190;-51
2023/08/08 12:36:54;;;;;;;5.53;3.07;;;;;;;;;;5022662;28;20267;-50
2023/08/08 12:39:22;;;;;;;3.67;2.90;;;;;;;;;;5024655;28;20190;-50
2023/08/08 12:41:48;;;;;;;4.20;2.70;;;;;;;;;;5023568;28;20189;-49
2023/08/08 12:44:15;;;;;;;6.07;2.97;;;;;;;;;;5024874;28;20293;-50
2023/08/08 12:46:41;;;;;;;5.33;2.83;;;;;;;;;;5021930;28;20268;-49
2023/08/08 12:49:08;;;;;;;3.83;2.70;;;;;;;;;;5025032;28;20823;-49
2023/08/08 12:51:34;;;;;;;5.30;2.87;;;;;;;;;;5024346;28;20247;-49
2023/08/08 12:54:01;;;;;;;4.80;2.47;;;;;;;;;;5016384;28;20317;-49
2023/08/08 12:56:27;;;;;;;3.80;2.40;;;;;;;;;;5021974;28;20217;-49
2023/08/08 12:58:53;;;;;;;5.63;2.90;;;;;;;;;;5019863;28;20190;-53
2023/08/08 13:01:19;;;;;;;3.67;3.03;;;;;;;;;;5025755;28;20178;-48
2023/08/08 13:03:45;;;;;;;4.03;3.13;;;;;;;;;;5025568;28;20609;-50
2023/08/08 13:06:13;;;;;;;5.83;3.20;;;;;;;;;;5025746;28;20244;-50
2023/08/08 13:08:39;;;;;;;6.77;3.40;;;;;;;;;;5025284;28;20189;-48
2023/08/08 13:11:05;;;;;;;5.00;3.33;;;;;;;;;;5024183;28;20691;-49
2023/08/08 13:13:31;;;;;;;6.10;3.57;;;;;;;;;;5025611;28;20195;-49
2023/08/08 13:15:58;;;;;;;5.40;3.37;;;;;;;;;;5026727;28;20338;-48
2023/08/08 13:18:24;;;;;;;5.90;2.80;;;;;;;;;;5024864;28;20186;-51
2023/08/08 13:20:50;;;;;;;4.40;2.70;;;;;;;;;;5021112;28;20236;-50
2023/08/08 13:23:16;;;;;;;3.83;2.43;;;;;;;;;;5025206;28;20213;-49
2023/08/08 13:25:42;;;;;;;5.07;2.80;;;;;;;;;;5005044;28;20199;-51
2023/08/08 13:28:08;;;;;;;4.60;2.97;;;;;;;;;;5017880;28;20186;-52
2023/08/08 13:30:35;;;;;;;5.23;2.63;;;;;;;;;;5031388;28;20209;-51
2023/08/08 13:33:01;;;;;;;4.63;2.70;;;;;;;;;;5031065;28;20193;-51
2023/08/08 13:35:27;;;;;;;5.17;2.00;;;;;;;;;;5030696;28;20678;-53
2023/08/08 13:37:54;;;;;;;2.27;2.07;;;;;;;;;;5025405;28;20222;-54
2023/08/08 13:40:20;;;;;;;3.63;2.20;;;;;;;;;;5031028;28;20183;-53
2023/08/08 13:42:48;;;;;;;2.77;2.00;;;;;;;;;;5031934;28;20546;-54
2023/08/08 13:45:17;;;;;;;2.83;2.00;;;;;;;;;;5031594;28;20276;-51
2023/08/08 13:47:43;;;;;;;3.57;2.30;;;;;;;;;;5030674;28;20186;-50
2023/08/08 13:50:09;;;;;;;3.63;2.23;;;;;;;;;;5030521;28;20190;-49
2023/08/08 13:52:36;;;;;;;3.67;2.50;;;;;;;;;;5030866;28;20589;-50
2023/08/08 13:55:02;;;;;;;2.70;2.20;;;;;;;;;;5028339;28;20196;-50
2023/08/08 13:57:28;;;;;;;3.37;2.63;;;;;;;;;;5029432;28;20586;-50
2023/08/08 13:59:54;;;;;;;3.10;2.73;;;;;;;;;;5026543;28;20521;-51
2023/08/08 14:02:21;;;;;;;2.70;2.50;;;;;;;;;;5028715;28;20190;-50
2023/08/08 14:04:47;;;;;;;3.43;2.20;;;;;;;;;;5028571;28;20194;-50
2023/08/08 14:07:13;;;;;;;2.00;1.80;;;;;;;;;;5021159;28;20265;-50
2023/08/08 14:09:39;;;;;;;3.03;2.37;;;;;;;;;;5024269;28;20201;-50
2023/08/08 14:12:05;;;;;;;3.07;2.43;;;;;;;;;;5033268;28;20229;-51
2023/08/08 14:14:31;;;;;;;3.93;2.17;;;;;;;;;;5032030;28;20584;-50
2023/08/08 14:16:57;;;;;;;2.73;2.17;;;;;;;;;;5033064;28;20238;-50
2023/08/08 14:19:23;;;;;;;3.17;2.40;;;;;;;;;;5031799;28;20649;-50
2023/08/08 14:21:50;;;;;;;3.00;2.13;;;;;;;;;;5031590;28;20190;-50
2023/08/08 14:24:16;;;;;;;2.33;2.00;;;;;;;;;;5029017;28;20197;-50
2023/08/08 14:26:42;;;;;;;2.97;2.30;;;;;;;;;;5032140;28;20194;-50
2023/08/08 14:29:08;;;;;;;2.40;2.20;;;;;;;;;;5031672;28;20190;-50
2023/08/08 14:31:34;;;;;;;2.50;1.70;;;;;;;;;;5028247;28;20316;-50
2023/08/08 14:34:00;;;;;;;3.47;2.70;;;;;;;;;;5030787;28;20214;-50
2023/08/08 14:36:26;;;;;;;3.50;2.37;;;;;;;;;;5026806;28;20548;-50
2023/08/08 14:38:52;;;;;;;4.77;2.40;;;;;;;;;;5029928;28;20661;-50
2023/08/08 14:41:18;;;;;;;2.57;2.37;;;;;;;;;;5021301;28;20191;-50